Time;durP1;ratioP1;P1;durP2;ratioP2;P2;SDS_P1;SDS_P2;PMS_P1;PMS_P2;Temp;Humidity;BMP_temperature;BMP_pressure;BME280_temperature;BME280_humidity;BME280_pressure;Samples;Min_cycle;Max_cycle;Signal;HPM_P1;HPM_P2
2021/10/22 00:00:16;;;;;;;;;;;8.20;99.90;;;;;;5015072;28;19953;-79
2021/10/22 00:02:42;;;;;;;;;;;8.20;99.90;;;;;;5014686;28;19924;-82
2021/10/22 00:05:08;;;;;;;;;;;8.20;99.90;;;;;;5015526;28;19913;-82
2021/10/22 00:07:34;;;;;;;;;;;8.30;99.90;;;;;;5016455;28;19920;-82
2021/10/22 00:09:59;;;;;;;;;;;8.20;99.90;;;;;;5016006;28;20008;-83
2021/10/22 00:12:25;;;;;;;;;;;8.20;99.90;;;;;;5016535;28;19944;-81
2021/10/22 00:14:51;;;;;;;;;;;8.10;99.90;;;;;;5016443;28;20366;-82
2021/10/22 00:17:16;;;;;;;;;;;8.10;99.90;;;;;;4997481;28;19913;-81
2021/10/22 00:19:42;;;;;;;;;;;8.00;99.90;;;;;;4997783;28;19949;-81
2021/10/22 00:22:07;;;;;;;;;;;8.00;99.90;;;;;;5015480;28;20399;-81
2021/10/22 00:24:33;;;;;;;;;;;8.00;99.90;;;;;;4997666;28;19913;-81
2021/10/22 00:26:59;;;;;;;;;;;8.00;99.90;;;;;;4998000;28;19914;-81
2021/10/22 00:29:24;;;;;;;;;;;8.00;99.90;;;;;;5015215;28;19913;-81
2021/10/22 00:31:50;;;;;;;;;;;8.00;99.90;;;;;;5014834;28;19937;-80
2021/10/22 00:34:15;;;;;;;;;;;8.00;99.90;;;;;;5014986;28;20002;-82
2021/10/22 00:36:41;;;;;;;;;;;8.00;99.90;;;;;;5015007;28;19965;-80
2021/10/22 00:39:07;;;;;;;;;;;8.00;99.90;;;;;;5015960;28;19917;-82
2021/10/22 00:41:33;;;;;;;;;;;8.00;99.90;;;;;;4997234;28;20008;-82
2021/10/22 00:43:59;;;;;;;;;;;8.00;99.90;;;;;;4998062;28;19917;-82
2021/10/22 00:46:29;;;;;;;;;;;8.00;99.90;;;;;;5014673;28;20004;-81
2021/10/22 00:48:55;;;;;;;;;;;8.00;99.90;;;;;;5014923;28;19918;-82
2021/10/22 00:51:21;;;;;;;;;;;8.00;99.90;;;;;;5014913;28;20424;-80
2021/10/22 00:53:47;;;;;;;;;;;8.00;99.90;;;;;;4997458;28;19956;-80
2021/10/22 00:56:12;;;;;;;;;;;8.00;99.90;;;;;;4989005;28;19909;-80
2021/10/22 00:58:39;;;;;;;;;;;8.00;99.90;;;;;;4977638;28;19914;-80
2021/10/22 01:01:05;;;;;;;;;;;8.00;99.90;;;;;;4979450;28;20005;-79
2021/10/22 01:03:31;;;;;;;;;;;8.00;99.90;;;;;;4995619;28;20426;-79
2021/10/22 01:06:00;;;;;;;;;;;8.00;99.90;;;;;;4996821;28;19909;-79
2021/10/22 01:08:26;;;;;;;;;;;8.00;99.90;;;;;;5014493;28;19913;-80
2021/10/22 01:10:52;;;;;;;;;;;8.00;99.90;;;;;;5014622;28;20285;-79
2021/10/22 01:13:17;;;;;;;;;;;8.00;99.90;;;;;;4996117;28;20079;-80
2021/10/22 01:15:43;;;;;;;;;;;8.00;99.90;;;;;;4997343;28;19909;-80
2021/10/22 01:18:08;;;;;;;;;;;7.90;99.90;;;;;;4993394;28;20358;-81
2021/10/22 01:20:38;;;;;;;;;;;7.90;99.90;;;;;;4989163;28;20333;-79
2021/10/22 01:23:03;;;;;;;;;;;7.90;99.90;;;;;;4994670;28;19918;-78
2021/10/22 01:25:29;;;;;;;;;;;7.80;99.90;;;;;;4997093;28;19916;-82
2021/10/22 01:27:55;;;;;;;;;;;7.80;99.90;;;;;;4997666;28;19960;-81
2021/10/22 01:30:21;;;;;;;;;;;7.80;99.90;;;;;;4996994;28;19920;-81
2021/10/22 01:32:52;;;;;;;;;;;7.80;99.90;;;;;;5014660;28;19913;-82
2021/10/22 01:35:17;;;;;;;;;;;7.80;99.90;;;;;;4994048;28;20378;-80
2021/10/22 01:37:43;;;;;;;;;;;7.70;99.90;;;;;;4999051;28;19924;-82
2021/10/22 01:40:09;;;;;;;;;;;7.70;99.90;;;;;;5001617;28;19909;-82
2021/10/22 01:42:35;;;;;;;;;;;7.70;99.90;;;;;;4999704;28;19917;-81
2021/10/22 01:45:01;;;;;;;;;;;7.70;99.90;;;;;;5000602;28;19920;-80
2021/10/22 01:47:26;;;;;;;;;;;7.70;99.90;;;;;;5000097;28;20374;-80
2021/10/22 01:49:52;;;;;;;;;;;7.70;99.90;;;;;;5017727;28;19920;-80
2021/10/22 01:52:18;;;;;;;;;;;7.70;99.90;;;;;;5000484;28;19909;-81
2021/10/22 01:54:44;;;;;;;;;;;7.70;99.90;;;;;;5000048;28;20472;-81
2021/10/22 01:57:11;;;;;;;;;;;7.70;99.90;;;;;;5017046;28;20289;-80
2021/10/22 01:59:36;;;;;;;;;;;7.60;99.90;;;;;;5000518;28;19910;-79
2021/10/22 02:02:02;;;;;;;;;;;7.60;99.90;;;;;;5017026;28;19924;-82
2021/10/22 02:04:28;;;;;;;;;;;7.70;99.90;;;;;;5000273;28;20000;-79
2021/10/22 02:06:54;;;;;;;;;;;7.70;99.90;;;;;;5000137;28;20378;-80
2021/10/22 02:09:19;;;;;;;;;;;7.70;99.90;;;;;;4999588;28;19980;-80
2021/10/22 02:11:45;;;;;;;;;;;7.60;99.90;;;;;;5017331;28;19913;-81
2021/10/22 02:14:11;;;;;;;;;;;7.70;99.90;;;;;;4999936;28;19965;-81
2021/10/22 02:16:37;;;;;;;;;;;7.70;99.90;;;;;;5017548;28;19914;-82
2021/10/22 02:19:02;;;;;;;;;;;7.70;99.90;;;;;;5017275;28;19992;-81
2021/10/22 02:21:28;;;;;;;;;;;7.60;99.90;;;;;;5018109;28;19909;-82
2021/10/22 02:23:53;;;;;;;;;;;7.60;99.90;;;;;;4999371;28;20285;-82
2021/10/22 02:26:19;;;;;;;;;;;7.70;99.90;;;;;;5017785;28;19976;-82
2021/10/22 02:28:44;;;;;;;;;;;7.60;99.90;;;;;;4999821;28;19914;-83
2021/10/22 02:31:10;;;;;;;;;;;7.60;99.90;;;;;;5000288;28;20286;-82
2021/10/22 02:33:36;;;;;;;;;;;7.60;99.90;;;;;;5017341;28;19913;-81
2021/10/22 02:36:01;;;;;;;;;;;7.70;99.90;;;;;;4999661;28;19977;-82
2021/10/22 02:38:27;;;;;;;;;;;7.70;99.90;;;;;;5017373;28;19913;-82
2021/10/22 02:40:52;;;;;;;;;;;7.60;99.90;;;;;;5017792;28;19921;-82
2021/10/22 02:43:18;;;;;;;;;;;7.60;99.90;;;;;;5017419;28;20285;-80
2021/10/22 02:45:43;;;;;;;;;;;7.60;99.90;;;;;;4999757;28;20047;-81
2021/10/22 02:48:09;;;;;;;;;;;7.60;99.90;;;;;;5017346;28;20000;-81
2021/10/22 02:50:34;;;;;;;;;;;7.60;99.90;;;;;;4999054;28;20436;-82
2021/10/22 02:53:00;;;;;;;;;;;7.60;99.90;;;;;;5017000;28;19913;-81
2021/10/22 02:55:26;;;;;;;;;;;7.60;99.90;;;;;;4999690;28;19967;-81
2021/10/22 02:57:51;;;;;;;;;;;7.60;99.90;;;;;;4998950;28;20329;-80
2021/10/22 03:00:17;;;;;;;;;;;7.60;99.90;;;;;;5000188;28;19909;-80
2021/10/22 03:02:45;;;;;;;;;;;7.60;99.90;;;;;;4998465;28;19921;-81
2021/10/22 03:05:11;;;;;;;;;;;7.60;99.90;;;;;;5016861;28;19924;-81
2021/10/22 03:07:37;;;;;;;;;;;7.60;99.90;;;;;;5017537;28;20261;-82
2021/10/22 03:10:03;;;;;;;;;;;7.60;99.90;;;;;;4998817;28;19913;-82
2021/10/22 03:12:29;;;;;;;;;;;7.60;99.90;;;;;;5017220;28;19917;-82
2021/10/22 03:14:54;;;;;;;;;;;7.50;99.90;;;;;;5016251;28;19963;-81
2021/10/22 03:17:20;;;;;;;;;;;7.60;99.90;;;;;;4998456;28;19917;-81
2021/10/22 03:19:45;;;;;;;;;;;7.60;99.90;;;;;;5016209;28;19914;-81
2021/10/22 03:22:11;;;;;;;;;;;7.60;99.90;;;;;;5016284;28;19917;-81
2021/10/22 03:24:37;;;;;;;;;;;7.60;99.90;;;;;;5017390;28;19909;-82
2021/10/22 03:27:04;;;;;;;;;;;7.60;99.90;;;;;;4998315;28;19928;-81
2021/10/22 03:29:30;;;;;;;;;;;7.60;99.90;;;;;;5016275;28;19921;-82
2021/10/22 03:31:55;;;;;;;;;;;7.60;99.90;;;;;;5016304;28;19913;-82
2021/10/22 03:34:21;;;;;;;;;;;7.70;99.90;;;;;;4997949;28;20008;-82
2021/10/22 03:36:46;;;;;;;;;;;7.80;99.90;;;;;;5016287;28;19932;-82
2021/10/22 03:39:12;;;;;;;;;;;7.70;99.90;;;;;;4997673;28;20601;-82
2021/10/22 03:41:37;;;;;;;;;;;7.70;99.90;;;;;;5015157;28;19909;-82
2021/10/22 03:44:03;;;;;;;;;;;7.70;99.90;;;;;;4997281;28;19917;-83
2021/10/22 03:46:28;;;;;;;;;;;7.70;99.90;;;;;;4998722;28;20336;-83
2021/10/22 03:48:54;;;;;;;;;;;7.70;99.90;;;;;;4998463;28;19913;-83
2021/10/22 03:51:19;;;;;;;;;;;7.80;99.90;;;;;;5016750;28;20398;-84
2021/10/22 03:53:45;;;;;;;;;;;7.80;99.90;;;;;;4998887;28;19909;-83
2021/10/22 03:56:10;;;;;;;;;;;7.80;99.90;;;;;;4998597;28;19925;-82
2021/10/22 03:58:36;;;;;;;;;;;7.90;99.90;;;;;;5015829;28;19916;-81
2021/10/22 04:01:02;;;;;;;;;;;7.90;99.90;;;;;;4998382;28;20016;-81
2021/10/22 04:03:27;;;;;;;;;;;8.00;99.90;;;;;;4998461;28;19983;-81
2021/10/22 04:05:53;;;;;;;;;;;8.00;99.90;;;;;;4998291;28;20009;-82
2021/10/22 04:08:19;;;;;;;;;;;7.90;99.90;;;;;;5015462;28;19913;-81
2021/10/22 04:10:45;;;;;;;;;;;8.00;99.90;;;;;;4997760;28;19910;-82
2021/10/22 04:13:11;;;;;;;;;;;8.00;99.90;;;;;;4998266;28;20301;-83
2021/10/22 04:15:38;;;;;;;;;;;8.10;99.90;;;;;;4997515;28;20432;-83
2021/10/22 04:18:04;;;;;;;;;;;8.20;99.90;;;;;;4997313;28;20377;-83
2021/10/22 04:20:29;;;;;;;;;;;8.20;99.90;;;;;;4997572;28;20328;-83
2021/10/22 04:22:58;;;;;;;;;;;8.20;99.90;;;;;;4997481;28;19913;-82
2021/10/22 04:25:23;;;;;;;;;;;8.20;99.90;;;;;;4997861;28;19917;-83
2021/10/22 04:27:48;;;;;;;;;;;8.30;99.90;;;;;;5015739;28;19914;-82
2021/10/22 04:30:14;;;;;;;;;;;8.30;99.90;;;;;;4998018;28;20354;-83
2021/10/22 04:32:39;;;;;;;;;;;8.40;99.90;;;;;;5024732;28;20067;-82
2021/10/22 04:35:05;;;;;;;;;;;8.40;99.90;;;;;;5017776;28;19909;-81
2021/10/22 04:37:35;;;;;;;;;;;8.50;99.90;;;;;;5009541;28;20008;-81
2021/10/22 04:42:49;;;;;;;;;;;8.60;99.90;;;;;;4996639;28;19924;-82
2021/10/22 04:45:16;;;;;;;;;;;8.60;99.90;;;;;;4981051;28;19910;-82
2021/10/22 04:47:41;;;;;;;;;;;8.70;99.90;;;;;;4998134;28;20369;-83
2021/10/22 04:50:08;;;;;;;;;;;8.70;99.90;;;;;;5010212;28;19909;-83
2021/10/22 04:52:34;;;;;;;;;;;8.80;99.90;;;;;;5012672;28;19910;-83
2021/10/22 04:55:00;;;;;;;;;;;8.80;99.90;;;;;;5001389;28;20289;-84
2021/10/22 04:57:25;;;;;;;;;;;8.80;99.90;;;;;;5007118;28;19913;-84
2021/10/22 04:59:51;;;;;;;;;;;8.90;99.90;;;;;;5017542;28;19926;-84
2021/10/22 05:02:16;;;;;;;;;;;8.90;99.90;;;;;;5019016;28;19944;-84
2021/10/22 05:04:42;;;;;;;;;;;8.90;99.90;;;;;;5016556;28;19913;-84
2021/10/22 05:07:07;;;;;;;;;;;9.00;99.90;;;;;;5017711;28;19909;-82
2021/10/22 05:09:33;;;;;;;;;;;9.00;99.90;;;;;;5018077;28;19910;-83
2021/10/22 05:12:05;;;;;;;;;;;9.10;99.90;;;;;;5036254;28;19905;-82
2021/10/22 05:14:31;;;;;;;;;;;9.10;99.90;;;;;;5018984;28;19956;-82
2021/10/22 05:16:57;;;;;;;;;;;9.10;99.90;;;;;;5037896;28;19901;-83
2021/10/22 05:19:22;;;;;;;;;;;9.20;99.90;;;;;;5021009;28;19929;-82
2021/10/22 05:21:47;;;;;;;;;;;9.20;99.90;;;;;;5038032;28;19960;-82
2021/10/22 05:24:13;;;;;;;;;;;9.30;99.90;;;;;;5038072;28;19929;-81
2021/10/22 05:26:38;;;;;;;;;;;9.30;99.90;;;;;;5037687;28;19921;-82
2021/10/22 05:29:04;;;;;;;;;;;9.30;99.90;;;;;;5021159;28;19932;-82
2021/10/22 05:31:29;;;;;;;;;;;9.40;99.90;;;;;;5038050;28;19912;-82
2021/10/22 05:33:55;;;;;;;;;;;9.50;99.90;;;;;;5038469;28;19914;-82
2021/10/22 05:36:20;;;;;;;;;;;9.50;99.90;;;;;;5038160;28;19967;-82
2021/10/22 05:38:46;;;;;;;;;;;9.50;99.90;;;;;;5037980;28;19913;-81
2021/10/22 05:41:11;;;;;;;;;;;9.40;99.90;;;;;;5021237;28;19906;-81
2021/10/22 05:43:37;;;;;;;;;;;9.40;99.90;;;;;;5021823;28;19910;-81
2021/10/22 05:46:02;;;;;;;;;;;9.50;99.90;;;;;;5021370;28;19929;-83
2021/10/22 05:48:28;;;;;;;;;;;9.50;99.90;;;;;;5019923;28;19961;-81
2021/10/22 05:50:53;;;;;;;;;;;9.50;99.90;;;;;;5038052;28;19901;-80
2021/10/22 05:53:19;;;;;;;;;;;9.60;99.90;;;;;;5038034;28;19901;-81
2021/10/22 05:55:44;;;;;;;;;;;9.50;99.90;;;;;;5037556;28;19932;-80
2021/10/22 05:58:10;;;;;;;;;;;9.60;99.90;;;;;;5018615;28;19911;-81
2021/10/22 06:00:37;;;;;;;;;;;9.50;99.90;;;;;;5035053;28;19913;-81
2021/10/22 06:03:02;;;;;;;;;;;9.50;99.90;;;;;;5032882;28;19997;-82
2021/10/22 06:05:28;;;;;;;;;;;9.60;99.90;;;;;;5016830;28;19914;-79
2021/10/22 06:07:53;;;;;;;;;;;9.50;99.90;;;;;;5017450;28;19901;-80
2021/10/22 06:10:19;;;;;;;;;;;9.50;99.90;;;;;;5034708;28;19951;-80
2021/10/22 06:12:44;;;;;;;;;;;9.50;99.90;;;;;;5023326;28;19969;-81
2021/10/22 06:15:10;;;;;;;;;;;9.50;99.90;;;;;;4983480;28;20443;-82
2021/10/22 06:17:35;;;;;;;;;;;9.40;99.90;;;;;;4984423;28;19914;-82
2021/10/22 06:20:09;;;;;;;;;;;9.40;99.90;;;;;;4982308;28;19914;-82
2021/10/22 06:25:20;;;;;;;;;;;9.40;99.90;;;;;;4982666;28;19961;-81
2021/10/22 06:27:45;;;;;;;;;;;9.30;99.90;;;;;;4985888;28;20064;-81
2021/10/22 06:30:11;;;;;;;;;;;9.30;99.90;;;;;;5003392;28;19922;-81
2021/10/22 06:32:36;;;;;;;;;;;9.30;99.90;;;;;;4999923;28;20358;-83
2021/10/22 06:35:02;;;;;;;;;;;9.40;99.90;;;;;;4989208;28;19898;-83
2021/10/22 06:37:28;;;;;;;;;;;9.40;99.90;;;;;;4992799;28;19961;-83
2021/10/22 06:39:53;;;;;;;;;;;9.40;99.90;;;;;;4979442;28;19917;-83
2021/10/22 06:42:19;;;;;;;;;;;9.40;99.90;;;;;;4980795;28;19914;-84
2021/10/22 06:44:44;;;;;;;;;;;9.40;99.90;;;;;;4999097;28;19913;-84
2021/10/22 06:47:10;;;;;;;;;;;9.40;99.90;;;;;;4987363;28;20037;-83
2021/10/22 06:49:35;;;;;;;;;;;9.40;99.90;;;;;;4977963;28;19921;-81
2021/10/22 06:52:01;;;;;;;;;;;9.40;99.90;;;;;;4981738;28;20429;-82
2021/10/22 06:54:27;;;;;;;;;;;9.50;99.90;;;;;;4981931;28;20009;-83
2021/10/22 06:56:52;;;;;;;;;;;9.60;99.90;;;;;;4978644;28;20390;-83
2021/10/22 06:59:18;;;;;;;;;;;9.70;99.90;;;;;;4987347;28;19914;-83
2021/10/22 07:01:44;;;;;;;;;;;9.70;99.90;;;;;;4996191;28;20421;-81
2021/10/22 07:04:11;;;;;;;;;;;9.80;99.90;;;;;;4977102;28;19914;-82
2021/10/22 07:09:21;;;;;;;;;;;9.90;99.90;;;;;;4978544;28;19972;-82
2021/10/22 07:11:47;;;;;;;;;;;9.90;99.90;;;;;;4978580;28;19918;-82
2021/10/22 07:14:13;;;;;;;;;;;10.00;99.90;;;;;;5011143;28;19922;-82
2021/10/22 07:16:40;;;;;;;;;;;10.00;99.90;;;;;;5016639;28;19928;-83
2021/10/22 07:19:06;;;;;;;;;;;10.10;99.90;;;;;;5016605;28;20432;-82
2021/10/22 07:21:32;;;;;;;;;;;10.10;99.90;;;;;;5016274;28;19913;-82
2021/10/22 07:24:00;;;;;;;;;;;10.10;99.90;;;;;;4998767;28;19913;-82
2021/10/22 07:26:26;;;;;;;;;;;10.10;99.90;;;;;;5016901;28;19937;-82
2021/10/22 07:28:51;;;;;;;;;;;10.10;99.90;;;;;;4998469;28;20273;-83
2021/10/22 07:31:18;;;;;;;;;;;10.20;99.90;;;;;;5014847;28;20713;-82
2021/10/22 07:33:43;;;;;;;;;;;10.30;99.90;;;;;;5012283;28;19965;-80
2021/10/22 07:36:11;;;;;;;;;;;10.50;99.90;;;;;;5013976;28;19913;-82
2021/10/22 07:38:37;;;;;;;;;;;10.50;99.90;;;;;;4993319;28;19914;-83
2021/10/22 07:41:03;;;;;;;;;;;10.60;99.90;;;;;;4999668;28;19910;-79
2021/10/22 07:43:30;;;;;;;;;;;10.60;99.90;;;;;;4998132;28;19917;-90
2021/10/22 07:45:58;;;;;;;;;;;10.70;99.90;;;;;;4997017;28;19913;-81
2021/10/22 07:48:23;;;;;;;;;;;10.70;99.90;;;;;;4997130;28;20308;-80
2021/10/22 07:50:50;;;;;;;;;;;10.80;99.90;;;;;;4998645;28;19909;-78
2021/10/22 07:53:15;;;;;;;;;;;10.80;99.90;;;;;;4997020;28;19917;-78
2021/10/22 07:55:43;;;;;;;;;;;10.70;99.90;;;;;;5014652;28;20400;-78
2021/10/22 07:58:08;;;;;;;;;;;10.70;99.90;;;;;;4997670;28;20004;-79
2021/10/22 08:00:34;;;;;;;;;;;10.70;99.90;;;;;;5014690;28;20384;-78
2021/10/22 08:02:59;;;;;;;;;;;10.70;99.90;;;;;;5013919;28;19963;-78
2021/10/22 08:05:25;;;;;;;;;;;10.90;99.90;;;;;;4997432;28;19913;-81
2021/10/22 08:07:50;;;;;;;;;;;11.00;99.90;;;;;;5016070;28;20030;-78
2021/10/22 08:10:16;;;;;;;;;;;11.00;99.90;;;;;;4998255;28;19910;-78
2021/10/22 08:12:41;;;;;;;;;;;11.00;99.90;;;;;;5019244;28;20054;-79
2021/10/22 08:15:07;;;;;;;;;;;11.00;99.90;;;;;;5015736;28;19952;-79
2021/10/22 08:17:35;;;;;;;;;;;11.00;99.90;;;;;;4996747;28;20362;-80
2021/10/22 08:20:09;;;;;;;;;;;11.20;99.90;;;;;;5012475;28;19918;-79
2021/10/22 08:22:35;;;;;;;;;;;11.30;99.90;;;;;;4993856;28;20027;-78
2021/10/22 08:25:03;;;;;;;;;;;11.30;99.90;;;;;;5014382;28;20378;-79
2021/10/22 08:27:30;;;;;;;;;;;11.30;99.90;;;;;;4996243;28;20332;-79
2021/10/22 08:29:56;;;;;;;;;;;11.40;99.90;;;;;;4996193;28;20298;-79
2021/10/22 08:32:22;;;;;;;;;;;11.30;99.90;;;;;;5015194;28;19910;-79
2021/10/22 08:34:47;;;;;;;;;;;11.40;99.90;;;;;;5014683;28;20251;-77
2021/10/22 08:37:14;;;;;;;;;;;11.40;99.90;;;;;;5014858;28;19916;-78
2021/10/22 08:39:45;;;;;;;;;;;11.50;99.90;;;;;;5014193;28;19909;-79
2021/10/22 08:42:11;;;;;;;;;;;11.50;99.90;;;;;;5013375;28;19925;-80
2021/10/22 08:44:38;;;;;;;;;;;11.50;99.90;;;;;;5009660;28;19921;-79
2021/10/22 08:47:05;;;;;;;;;;;11.40;99.90;;;;;;5007443;28;19914;-80
2021/10/22 08:49:31;;;;;;;;;;;11.40;99.90;;;;;;5009216;28;20291;-80
2021/10/22 08:51:59;;;;;;;;;;;11.50;99.90;;;;;;4993020;28;19913;-81
2021/10/22 08:54:25;;;;;;;;;;;11.50;99.90;;;;;;5012791;28;20408;-80
2021/10/22 08:56:51;;;;;;;;;;;11.50;99.90;;;;;;5011900;28;19922;-80
2021/10/22 08:59:16;;;;;;;;;;;11.50;99.90;;;;;;5011084;28;19918;-80
2021/10/22 09:02:17;;;;;;;;;;;11.40;99.90;;;;;;5012010;28;20027;-79
2021/10/22 09:04:43;;;;;;;;;;;11.30;99.90;;;;;;4897849;29;19922;-80
2021/10/22 09:07:10;;;;;;;;;;;11.30;99.90;;;;;;4976257;28;19909;-79
2021/10/22 09:09:36;;;;;;;;;;;11.30;99.90;;;;;;5012574;28;19920;-79
2021/10/22 09:12:02;;;;;;;;;;;11.20;99.90;;;;;;4995186;28;19949;-79
2021/10/22 09:14:28;;;;;;;;;;;11.30;99.90;;;;;;5013578;28;20006;-79
2021/10/22 09:16:54;;;;;;;;;;;11.40;99.90;;;;;;5008581;28;19917;-80
2021/10/22 09:19:46;;;;;;;;;;;11.40;99.90;;;;;;4994695;28;19980;-78
2021/10/22 09:22:32;;;;;;;;;;;11.50;99.90;;;;;;5009548;28;19913;-79
2021/10/22 09:25:04;;;;;;;;;;;11.50;99.90;;;;;;5012007;28;19923;-79
2021/10/22 09:27:34;;;;;;;;;;;11.40;99.90;;;;;;5013147;28;19917;-79
2021/10/22 09:30:00;;;;;;;;;;;11.30;99.90;;;;;;5012349;28;20400;-80
2021/10/22 09:32:26;;;;;;;;;;;11.30;99.90;;;;;;5012876;28;19913;-79
2021/10/22 09:34:52;;;;;;;;;;;11.30;99.90;;;;;;4994948;28;19936;-81
2021/10/22 09:37:17;;;;;;;;;;;11.40;99.90;;;;;;5013859;28;19920;-78
2021/10/22 09:39:43;;;;;;;;;;;11.40;99.90;;;;;;4995966;28;19909;-78
2021/10/22 09:42:13;;;;;;;;;;;11.30;99.90;;;;;;4994717;28;19924;-79
2021/10/22 09:44:41;;;;;;;;;;;11.40;99.90;;;;;;5011897;28;20460;-79
2021/10/22 09:47:07;;;;;;;;;;;11.40;99.90;;;;;;4995176;28;19914;-80
2021/10/22 09:49:33;;;;;;;;;;;11.30;99.90;;;;;;5013344;28;19916;-79
2021/10/22 09:52:00;;;;;;;;;;;11.30;99.90;;;;;;5013465;28;20289;-80
2021/10/22 09:54:30;;;;;;;;;;;11.30;99.90;;;;;;5015556;28;19914;-79
2021/10/22 09:56:57;;;;;;;;;;;11.30;99.90;;;;;;5016510;28;19914;-80
2021/10/22 09:59:24;;;;;;;;;;;11.30;99.90;;;;;;5000053;28;19916;-80
2021/10/22 10:01:51;;;;;;;;;;;11.30;99.90;;;;;;4997594;28;19913;-78
2021/10/22 10:04:17;;;;;;;;;;;11.40;99.90;;;;;;5015759;28;19920;-79
2021/10/22 10:06:44;;;;;;;;;;;11.40;99.90;;;;;;4998888;28;20362;-78
2021/10/22 10:09:10;;;;;;;;;;;11.50;99.90;;;;;;4995668;28;19920;-76
2021/10/22 10:11:37;;;;;;;;;;;11.50;99.90;;;;;;4991911;28;19914;-79
2021/10/22 10:14:03;;;;;;;;;;;11.50;99.90;;;;;;4998177;28;20337;-79
2021/10/22 10:16:29;;;;;;;;;;;11.60;99.90;;;;;;5015576;28;20424;-79
2021/10/22 10:19:00;;;;;;;;;;;11.60;99.90;;;;;;4999845;28;20251;-79
2021/10/22 10:21:27;;;;;;;;;;;11.60;99.90;;;;;;5016105;28;20398;-80
2021/10/22 10:23:53;;;;;;;;;;;11.50;99.90;;;;;;4997081;28;19924;-80
2021/10/22 10:26:23;;;;;;;;;;;11.60;99.90;;;;;;4996534;28;19913;-79
2021/10/22 10:28:52;;;;;;;;;;;11.60;99.90;;;;;;5016066;28;19920;-80
2021/10/22 10:31:27;;;;;;;;;;;11.80;99.90;;;;;;5016330;28;19960;-79
2021/10/22 10:33:55;;;;;;;;;;;11.90;99.90;;;;;;5015078;28;19917;-79
2021/10/22 10:36:39;;;;;;;;;;;12.10;99.90;;;;;;5012076;28;19922;-80
2021/10/22 10:39:04;;;;;;;;;;;12.40;99.90;;;;;;4998548;28;19909;-78
2021/10/22 10:41:33;;;;;;;;;;;12.50;99.90;;;;;;4997373;28;19917;-79
2021/10/22 10:44:18;;;;;;;;;;;12.40;99.90;;;;;;5016693;28;20424;-79
2021/10/22 10:46:43;;;;;;;;;;;12.40;99.90;;;;;;5016493;28;20285;-79
2021/10/22 10:49:09;;;;;;;;;;;12.30;99.90;;;;;;5001054;28;19909;-80
2021/10/22 10:51:38;;;;;;;;;;;12.30;99.90;;;;;;5017290;28;19914;-79
2021/10/22 10:54:03;;;;;;;;;;;12.30;99.90;;;;;;4999084;28;20325;-79
2021/10/22 10:56:33;;;;;;;;;;;12.10;99.90;;;;;;4997833;28;20051;-80
2021/10/22 10:58:59;;;;;;;;;;;12.00;99.90;;;;;;5014958;28;20274;-79
2021/10/22 11:01:31;;;;;;;;;;;12.00;99.90;;;;;;4989698;28;19920;-79
2021/10/22 11:03:57;;;;;;;;;;;12.00;99.90;;;;;;4990608;28;19917;-79
2021/10/22 11:06:34;;;;;;;;;;;12.00;99.90;;;;;;4997299;28;19913;-78
2021/10/22 11:08:59;;;;;;;;;;;12.00;99.90;;;;;;5015438;28;19913;-78
2021/10/22 11:11:27;;;;;;;;;;;12.10;99.90;;;;;;5015917;28;19910;-78
2021/10/22 11:13:57;;;;;;;;;;;12.20;99.90;;;;;;5007310;28;19980;-78
2021/10/22 11:16:28;;;;;;;;;;;12.10;99.90;;;;;;5000695;28;19914;-78
2021/10/22 11:18:55;;;;;;;;;;;12.10;99.90;;;;;;4998123;28;20404;-78
2021/10/22 11:21:21;;;;;;;;;;;12.10;99.90;;;;;;5016195;28;20370;-79
2021/10/22 11:23:46;;;;;;;;;;;12.20;99.90;;;;;;5014426;28;20016;-78
2021/10/22 11:26:19;;;;;;;;;;;12.20;99.90;;;;;;5014914;28;20354;-78
2021/10/22 11:28:54;;;;;;;;;;;12.30;99.90;;;;;;5015830;28;19910;-79
2021/10/22 11:31:46;;;;;;;;;;;12.40;99.90;;;;;;5015327;28;19944;-78
2021/10/22 11:34:13;;;;;;;;;;;12.80;99.90;;;;;;5009886;28;19941;-79
2021/10/22 11:36:39;;;;;;;;;;;13.20;99.90;;;;;;5016121;28;19988;-79
2021/10/22 11:39:21;;;;;;;;;;;13.40;99.90;;;;;;4997470;28;19964;-78
2021/10/22 11:42:06;;;;;;;;;;;13.40;99.90;;;;;;4998166;28;19916;-78
2021/10/22 11:44:35;;;;;;;;;;;13.50;99.90;;;;;;5014133;28;20334;-79
2021/10/22 11:47:01;;;;;;;;;;;13.30;99.90;;;;;;5013245;28;19920;-79
2021/10/22 11:49:27;;;;;;;;;;;13.20;99.90;;;;;;4997522;28;20008;-78
2021/10/22 11:51:54;;;;;;;;;;;13.20;99.90;;;;;;4997421;28;19914;-78
2021/10/22 11:54:20;;;;;;;;;;;13.20;99.90;;;;;;4996754;28;19914;-78
2021/10/22 11:56:45;;;;;;;;;;;13.20;99.90;;;;;;4998179;28;19909;-79
2021/10/22 11:59:11;;;;;;;;;;;13.10;99.90;;;;;;5013563;28;20012;-79
2021/10/22 12:01:42;;;;;;;;;;;13.10;99.90;;;;;;4996925;28;19939;-78
2021/10/22 12:04:27;;;;;;;;;;;13.40;99.90;;;;;;4996768;28;19917;-78
2021/10/22 12:07:03;;;;;;;;;;;13.40;99.90;;;;;;4997398;28;19969;-78
2021/10/22 12:09:33;;;;;;;;;;;13.40;99.90;;;;;;5013496;28;19975;-79
2021/10/22 12:12:04;;;;;;;;;;;13.40;99.90;;;;;;4996849;28;19913;-78
2021/10/22 12:14:33;;;;;;;;;;;13.30;99.90;;;;;;5012502;28;19967;-78
2021/10/22 12:17:00;;;;;;;;;;;13.30;99.90;;;;;;4996858;28;19920;-80
2021/10/22 12:19:26;;;;;;;;;;;13.10;99.90;;;;;;5013150;28;20011;-80
2021/10/22 12:21:52;;;;;;;;;;;13.00;99.90;;;;;;5014811;28;20479;-79
2021/10/22 12:24:19;;;;;;;;;;;13.00;99.90;;;;;;4996319;28;19957;-79
2021/10/22 12:26:45;;;;;;;;;;;13.00;99.90;;;;;;5014953;28;19914;-81
2021/10/22 12:29:11;;;;;;;;;;;13.00;99.90;;;;;;5013586;28;20398;-79
2021/10/22 12:31:38;;;;;;;;;;;12.90;99.90;;;;;;4995016;28;20412;-80
2021/10/22 12:34:07;;;;;;;;;;;12.80;99.90;;;;;;5013466;28;20004;-78
2021/10/22 12:36:33;;;;;;;;;;;12.50;99.90;;;;;;4997028;28;20338;-79
2021/10/22 12:38:59;;;;;;;;;;;12.30;99.90;;;;;;5014238;28;19945;-80
2021/10/22 12:41:28;;;;;;;;;;;12.20;99.90;;;;;;5014545;28;20392;-79
2021/10/22 12:44:10;;;;;;;;;;;12.10;99.90;;;;;;5014868;28;20255;-80
2021/10/22 12:46:35;;;;;;;;;;;12.10;99.90;;;;;;4996279;28;19964;-80
2021/10/22 12:49:06;;;;;;;;;;;12.10;99.90;;;;;;5012976;28;20366;-78
2021/10/22 12:51:33;;;;;;;;;;;12.10;99.90;;;;;;5015648;28;20292;-84
2021/10/22 12:54:01;;;;;;;;;;;12.10;99.90;;;;;;4998026;28;19945;-84
2021/10/22 12:56:27;;;;;;;;;;;11.90;99.90;;;;;;4998373;28;19916;-85
2021/10/22 12:59:02;;;;;;;;;;;12.00;99.90;;;;;;4998847;28;19956;-85
2021/10/22 13:01:34;;;;;;;;;;;12.10;99.90;;;;;;4998506;28;19920;-85
2021/10/22 13:04:02;;;;;;;;;;;12.20;99.90;;;;;;5013682;28;19967;-84
2021/10/22 13:06:39;;;;;;;;;;;12.20;99.90;;;;;;4998456;28;20366;-84
2021/10/22 13:22:18;;;;;;;;;;;11.90;99.90;;;;;;5014967;28;19920;-84
2021/10/22 13:24:44;;;;;;;;;;;11.70;99.90;;;;;;4997805;28;19913;-84
2021/10/22 13:27:10;;;;;;;;;;;11.60;99.90;;;;;;4997133;28;20289;-83
2021/10/22 13:29:36;;;;;;;;;;;11.50;99.90;;;;;;5001645;28;19913;-86
2021/10/22 13:32:01;;;;;;;;;;;11.20;99.90;;;;;;5020181;28;20289;-84
2021/10/22 13:34:27;;;;;;;;;;;10.90;99.90;;;;;;5013085;28;19985;-82
2021/10/22 13:36:52;;;;;;;;;;;10.70;99.90;;;;;;5019140;28;19909;-81
2021/10/22 13:39:18;;;;;;;;;;;10.50;99.90;;;;;;4999030;28;19914;-83
2021/10/22 13:41:43;;;;;;;;;;;10.30;99.90;;;;;;4997417;28;19920;-83
2021/10/22 13:44:09;;;;;;;;;;;10.30;99.90;;;;;;4998190;28;20170;-84
2021/10/22 13:46:35;;;;;;;;;;;10.30;99.90;;;;;;5000554;28;20449;-85
2021/10/22 13:49:01;;;;;;;;;;;10.30;99.90;;;;;;5002163;28;19915;-85
2021/10/22 13:51:27;;;;;;;;;;;10.30;99.90;;;;;;5019180;28;19940;-85
2021/10/22 13:53:53;;;;;;;;;;;10.30;99.90;;;;;;5018069;28;19945;-86
2021/10/22 13:56:19;;;;;;;;;;;10.40;99.90;;;;;;5000295;28;19917;-85
2021/10/22 13:58:44;;;;;;;;;;;10.40;99.90;;;;;;5019053;28;19941;-85
2021/10/22 14:01:10;;;;;;;;;;;10.40;99.90;;;;;;5019550;28;19977;-86
2021/10/22 14:03:36;;;;;;;;;;;10.50;99.90;;;;;;5004963;28;20071;-84
2021/10/22 14:06:05;;;;;;;;;;;10.50;99.90;;;;;;5001121;28;20291;-85
2021/10/22 14:08:32;;;;;;;;;;;10.40;99.90;;;;;;5001120;28;20294;-85
2021/10/22 14:11:03;;;;;;;;;;;10.40;99.90;;;;;;5001226;28;19913;-85
2021/10/22 14:13:33;;;;;;;;;;;10.40;99.90;;;;;;5001096;28;19928;-85
2021/10/22 14:16:12;;;;;;;;;;;10.30;99.90;;;;;;5018246;28;19953;-87
2021/10/22 14:19:31;;;;;;;;;;;10.20;99.90;;;;;;5018046;28;19917;-85
2021/10/22 14:29:23;;;;;;;;;;;10.00;99.90;;;;;;5017831;28;19921;-81
2021/10/22 14:31:49;;;;;;;;;;;10.00;99.90;;;;;;4986339;28;19913;-85
2021/10/22 14:34:15;;;;;;;;;;;10.00;99.90;;;;;;5006696;28;19971;-83
2021/10/22 14:36:46;;;;;;;;;;;10.10;99.90;;;;;;5012411;28;19936;-81
2021/10/22 14:39:12;;;;;;;;;;;10.10;99.90;;;;;;5014651;28;20000;-77
2021/10/22 14:41:38;;;;;;;;;;;10.20;99.90;;;;;;4994108;28;19913;-78
2021/10/22 14:44:04;;;;;;;;;;;10.30;99.90;;;;;;4995862;28;19918;-79
2021/10/22 14:46:34;;;;;;;;;;;10.30;99.90;;;;;;5015825;28;19913;-78
2021/10/22 14:49:14;;;;;;;;;;;10.30;99.90;;;;;;5013407;28;19943;-78
2021/10/22 14:54:21;;;;;;;;;;;10.30;99.90;;;;;;5014192;28;20396;-78